Time;durP1;ratioP1;P1;durP2;ratioP2;P2;SDS_P1;SDS_P2;PMS_P1;PMS_P2;Temp;Humidity;BMP_temperature;BMP_pressure;BME280_temperature;BME280_humidity;BME280_pressure;Samples;Min_cycle;Max_cycle;Signal;HPM_P1;HPM_P2
2024/04/05 00:08:15;;;;;;;6.73;2.70;;;;;;;13.16;56.23;100351.47;31414800;28;20056;-74
2024/04/05 00:23:16;;;;;;;6.70;3.10;;;;;;;13.01;57.32;100350.25;31424493;28;20091;-75
2024/04/05 00:38:18;;;;;;;4.40;2.93;;;;;;;12.90;59.23;100347.03;31417791;28;20045;-75
2024/04/05 00:53:31;;;;;;;6.53;3.23;;;;;;;12.60;58.96;100343.50;31394636;28;20068;-74
2024/04/05 01:08:32;;;;;;;6.03;2.87;;;;;;;12.68;57.84;100313.38;31406535;28;20078;-77
2024/04/05 01:23:41;;;;;;;6.67;2.83;;;;;;;12.43;59.29;100325.63;31422724;28;20114;-75
2024/04/05 01:38:42;;;;;;;5.37;3.10;;;;;;;12.28;59.36;100327.16;31423469;28;20048;-76
2024/04/05 01:53:44;;;;;;;7.00;2.90;;;;;;;12.41;61.29;100352.50;31437061;28;20068;-75
2024/04/05 02:08:44;;;;;;;4.13;2.67;;;;;;;12.38;59.89;100364.25;31413065;28;20421;-76
2024/04/05 02:23:45;;;;;;;5.97;3.73;;;;;;;12.17;60.69;100354.59;31426579;28;20532;-74
2024/04/05 02:38:47;;;;;;;7.97;4.03;;;;;;;12.08;65.47;100367.25;31426955;28;20432;-74
2024/04/05 02:53:49;;;;;;;9.70;3.80;;;;;;;12.03;67.26;100381.38;31416207;28;20515;-75
2024/04/05 03:08:50;;;;;;;5.63;3.03;;;;;;;11.97;67.06;100396.66;31425134;28;20056;-74
2024/04/05 03:23:52;;;;;;;3.90;2.40;;;;;;;12.07;66.64;100414.69;31442077;28;20048;-75
2024/04/05 03:38:56;;;;;;;8.70;3.13;;;;;;;12.19;67.14;100424.94;31428500;28;20049;-74
2024/04/05 03:53:58;;;;;;;7.03;3.37;;;;;;;12.18;66.55;100437.00;31415751;28;20532;-75
2024/04/05 04:08:59;;;;;;;7.37;3.17;;;;;;;12.09;67.23;100453.13;31402150;28;20141;-75
2024/04/05 04:24:00;;;;;;;23.60;3.85;;;;;;;12.33;63.40;100464.69;31434127;28;20470;-74
2024/04/05 04:39:08;;;;;;;5.60;3.43;;;;;;;12.58;62.82;100475.81;31438229;28;20040;-75
2024/04/05 04:54:11;;;;;;;6.10;3.87;;;;;;;12.81;62.59;100483.09;31432362;28;20056;-74
2024/04/05 05:09:15;;;;;;;8.73;4.30;;;;;;;13.74;59.32;100482.38;31395381;28;20098;-74
2024/04/05 05:24:16;;;;;;;6.73;3.90;;;;;;;14.66;54.16;100485.22;31383421;28;20099;-75
2024/04/05 05:39:19;;;;;;;12.30;5.30;;;;;;;15.41;50.95;100498.50;31426635;28;20060;-74
2024/04/05 05:54:21;;;;;;;4.97;2.23;;;;;;;15.40;51.12;100508.69;31434274;28;20060;-75
2024/04/05 06:09:22;;;;;;;4.80;2.30;;;;;;;15.05;51.58;100537.94;31496480;28;20055;-75
2024/04/05 06:24:23;;;;;;;4.20;1.50;;;;;;;15.39;49.58;100544.69;31462166;28;20058;-76
2024/04/05 06:39:26;;;;;;;7.10;2.13;;;;;;;15.60;48.21;100549.47;31449485;28;20056;-75
2024/04/05 06:54:28;;;;;;;6.43;2.40;;;;;;;15.48;48.25;100558.47;31466875;28;20061;-75
2024/04/05 07:09:31;;;;;;;3.33;1.70;;;;;;;15.69;48.19;100549.56;31438071;28;20056;-76
2024/04/05 07:24:32;;;;;;;18.60;4.17;;;;;;;18.27;43.59;100562.72;31432915;28;20049;-76
2024/04/05 07:39:38;;;;;;;3.40;2.27;;;;;;;19.08;40.71;100568.50;31426794;28;20075;-75
2024/04/05 07:54:43;;;;;;;4.90;1.80;;;;;;;18.87;40.34;100580.50;31436572;28;20048;-75
2024/04/05 08:09:43;;;;;;;;;;;;;;;18.80;40.49;100584.34;31453141;28;20083;-77
2024/04/05 08:24:48;;;;;;;3.10;2.00;;;;;;;19.68;40.06;100589.59;31439529;28;19955;-77
2024/04/05 08:39:49;;;;;;;6.57;2.50;;;;;;;20.36;38.54;100575.88;31432008;28;20418;-77
2024/04/05 08:54:50;;;;;;;3.16;1.90;;;;;;;21.29;36.93;100564.13;31446755;28;20048;-75
2024/04/05 09:09:51;;;;;;;3.90;2.58;;;;;;;21.70;35.21;100564.16;31462162;28;20053;-76
2024/04/05 09:25:06;;;;;;;5.32;2.70;;;;;;;22.76;34.31;100554.19;31428802;28;20060;-75
2024/04/05 09:40:10;;;;;;;14.68;4.43;;;;;;;22.91;33.48;100552.03;31450177;28;20057;-74
2024/04/05 09:55:19;;;;;;;7.25;3.70;;;;;;;23.44;32.67;100551.34;31494981;28;20433;-75
2024/04/05 10:10:38;;;;;;;7.03;3.80;;;;;;;23.99;31.57;100561.19;31460299;28;20071;-78
2024/04/05 10:25:41;;;;;;;9.25;3.58;;;;;;;23.91;30.67;100551.81;31453747;28;20056;-78
2024/04/05 10:40:43;;;;;;;20.00;4.65;;;;;;;24.54;31.04;100573.66;31412773;28;20057;-75
2024/04/05 10:55:45;;;;;;;11.53;4.07;;;;;;;24.51;30.08;100571.88;31445600;28;20090;-76
2024/04/05 11:10:46;;;;;;;7.75;3.10;;;;;;;24.69;30.33;100559.53;31434390;28;20056;-76
2024/04/05 11:25:57;;;;;;;9.48;3.08;;;;;;;25.51;28.56;100548.03;31451114;28;20128;-75
2024/04/05 11:40:58;;;;;;;11.07;3.13;;;;;;;25.15;29.08;100543.06;31445033;28;20405;-75
2024/04/05 11:55:59;;;;;;;7.80;2.97;;;;;;;23.97;30.69;100547.06;31458169;28;20084;-79
2024/04/05 12:11:01;;;;;;;12.88;3.88;;;;;;;21.30;32.92;100554.59;31424465;28;20053;-77
2024/04/05 12:26:02;;;;;;;8.15;2.78;;;;;;;20.24;33.92;100532.81;31457174;28;20045;-76
2024/04/05 12:41:03;;;;;;;8.95;3.35;;;;;;;19.78;34.76;100558.00;31405796;28;20119;-74
2024/04/05 12:56:06;;;;;;;5.95;1.63;;;;;;;19.52;34.87;100540.44;31407362;28;20049;-77
2024/04/05 13:11:08;;;;;;;3.90;2.20;;;;;;;19.29;36.28;100550.94;31411809;28;20447;-80
2024/04/05 13:26:17;;;;;;;12.25;2.67;;;;;;;18.85;38.10;100549.94;31434121;28;20047;-77
2024/04/05 13:41:19;;;;;;;3.40;1.63;;;;;;;18.55;37.98;100535.94;31448817;28;20065;-76
2024/04/05 13:56:21;;;;;;;3.22;1.98;;;;;;;18.28;38.78;100541.50;31458247;28;20056;-81
2024/04/05 14:11:22;;;;;;;9.37;2.00;;;;;;;18.29;39.68;100548.53;31433138;28;20564;-82
2024/04/05 14:26:23;;;;;;;5.57;1.87;;;;;;;18.25;39.39;100567.16;31454091;28;20045;-80
2024/04/05 14:41:25;;;;;;;4.77;2.10;;;;;;;18.21;39.51;100585.75;31431766;28;20061;-80
2024/04/05 14:56:26;;;;;;;5.23;1.80;;;;;;;18.03;39.46;100587.31;31488548;28;20057;-79
2024/04/05 15:11:27;;;;;;;2.78;1.60;;;;;;;18.00;39.52;100604.69;31422894;28;20060;-77
2024/04/05 15:26:28;;;;;;;10.13;4.97;;;;;;;17.83;39.83;100605.44;31422151;28;20056;-72
2024/04/05 15:41:29;;;;;;;5.57;3.00;;;;;;;17.55;40.37;100601.84;31450971;28;20081;-76
2024/04/05 15:56:30;;;;;;;8.33;2.00;;;;;;;17.43;40.68;100613.72;31443576;28;20053;-75
2024/04/05 16:11:31;;;;;;;6.53;3.47;;;;;;;17.17;41.08;100626.88;31429393;28;20076;-74
2024/04/05 16:26:32;;;;;;;8.40;3.67;;;;;;;16.98;41.09;100631.53;31389575;28;20053;-74
2024/04/05 16:41:33;;;;;;;5.13;3.10;;;;;;;16.77;41.31;100659.75;31402439;28;20457;-75
2024/04/05 16:56:35;;;;;;;60.70;23.70;;;;;;;16.73;41.84;100675.53;31435598;28;20079;-77
2024/04/05 17:11:36;;;;;;;8.73;5.13;;;;;;;16.55;41.72;100698.81;31421239;28;20071;-75
2024/04/05 17:26:37;;;;;;;9.33;5.53;;;;;;;16.36;42.01;100713.56;31434371;28;20426;-76
2024/04/05 17:41:39;;;;;;;6.30;3.57;;;;;;;16.26;42.12;100736.63;31442962;28;20106;-75
2024/04/05 17:56:44;;;;;;;9.13;4.40;;;;;;;15.96;42.80;100725.06;31430481;28;20057;-75
2024/04/05 18:11:46;;;;;;;10.03;4.57;;;;;;;15.71;43.83;100730.53;31427227;28;20070;-75
2024/04/05 18:26:48;;;;;;;8.10;4.37;;;;;;;15.48;45.01;100733.56;31461676;28;20053;-77
2024/04/05 18:41:49;;;;;;;11.70;4.47;;;;;;;15.25;44.69;100732.66;31476524;28;20056;-75
2024/04/05 18:56:50;;;;;;;13.73;7.40;;;;;;;15.18;45.54;100732.09;31442059;28;20053;-75
2024/04/05 19:11:51;;;;;;;14.37;6.90;;;;;;;15.04;45.80;100738.75;31436102;28;20074;-74
2024/04/05 19:26:52;;;;;;;17.93;7.60;;;;;;;14.85;46.83;100740.44;31424278;28;20057;-73
2024/04/05 19:41:54;;;;;;;17.23;8.50;;;;;;;14.65;48.26;100746.00;31426701;28;20049;-78
2024/04/05 19:56:56;;;;;;;18.43;8.60;;;;;;;14.46;48.72;100743.41;31445570;28;20064;-76
2024/04/05 20:11:57;;;;;;;21.10;7.67;;;;;;;14.29;49.04;100732.47;31425789;28;20055;-77
2024/04/05 20:26:58;;;;;;;19.07;6.70;;;;;;;14.23;49.72;100733.41;31452950;28;20053;-74
2024/04/05 20:42:00;;;;;;;15.93;6.07;;;;;;;14.07;49.43;100749.81;31417207;28;20052;-75
2024/04/05 20:57:01;;;;;;;13.70;6.80;;;;;;;13.74;50.60;100749.75;31439925;28;20052;-77
2024/04/05 21:12:02;;;;;;;22.27;7.47;;;;;;;13.66;50.72;100742.94;31463806;28;20056;-77
2024/04/05 21:27:03;;;;;;;14.37;7.97;;;;;;;13.65;49.57;100738.69;31459978;28;20387;-79
2024/04/05 21:42:05;;;;;;;14.17;7.13;;;;;;;13.69;49.33;100738.59;31428414;28;20506;-77
2024/04/05 21:57:06;;;;;;;10.93;5.60;;;;;;;13.22;50.16;100739.59;31444486;28;20049;-75
2024/04/05 22:12:07;;;;;;;9.40;5.17;;;;;;;13.12;50.95;100753.41;31435093;28;20051;-75
2024/04/05 22:27:08;;;;;;;11.27;5.43;;;;;;;12.87;51.09;100742.97;31421683;28;20048;-75
2024/04/05 22:42:09;;;;;;;7.80;3.47;;;;;;;12.61;51.65;100742.66;31451310;28;20063;-76
2024/04/05 22:57:12;;;;;;;6.43;3.13;;;;;;;12.68;52.85;100746.44;31437897;28;20048;-75
2024/04/05 23:12:13;;;;;;;8.43;4.53;;;;;;;12.20;53.83;100750.38;31436696;28;20065;-75
2024/04/05 23:27:15;;;;;;;7.93;4.17;;;;;;;11.97;54.94;100748.38;31440744;28;20052;-75
2024/04/05 23:42:16;;;;;;;6.67;3.93;;;;;;;12.04;55.11;100742.84;31406382;28;20494;-74
2024/04/05 23:57:18;;;;;;;5.63;3.33;;;;;;;12.10;55.33;100737.69;31429324;28;20518;-75
